sensor_id;sensor_type;location;lat;lon;timestamp;P1;durP1;ratioP1;P2;durP2;ratioP2
65463;SDS011;52063;45.110;9.870;2024-03-25T00:00:09;1.65;;;1.20;;
65463;SDS011;52063;45.110;9.870;2024-03-25T00:02:38;1.70;;;1.30;;
65463;SDS011;52063;45.110;9.870;2024-03-25T00:05:04;1.70;;;1.13;;
65463;SDS011;52063;45.110;9.870;2024-03-25T00:07:30;1.92;;;1.10;;
65463;SDS011;52063;45.110;9.870;2024-03-25T00:09:56;1.73;;;1.40;;
65463;SDS011;52063;45.110;9.870;2024-03-25T00:12:25;2.17;;;1.40;;
65463;SDS011;52063;45.110;9.870;2024-03-25T00:14:50;2.05;;;1.20;;
65463;SDS011;52063;45.110;9.870;2024-03-25T00:17:16;1.80;;;1.13;;
65463;SDS011;52063;45.110;9.870;2024-03-25T00:19:41;1.97;;;1.20;;
65463;SDS011;52063;45.110;9.870;2024-03-25T00:22:07;1.83;;;1.33;;
65463;SDS011;52063;45.110;9.870;2024-03-25T00:24:32;3.57;;;1.40;;
65463;SDS011;52063;45.110;9.870;2024-03-25T00:26:58;1.53;;;0.97;;
65463;SDS011;52063;45.110;9.870;2024-03-25T00:29:23;1.50;;;1.40;;
65463;SDS011;52063;45.110;9.870;2024-03-25T00:31:49;1.60;;;1.33;;
65463;SDS011;52063;45.110;9.870;2024-03-25T00:34:14;2.77;;;1.43;;
65463;SDS011;52063;45.110;9.870;2024-03-25T00:36:40;1.40;;;1.30;;
65463;SDS011;52063;45.110;9.870;2024-03-25T00:39:05;2.60;;;1.10;;
65463;SDS011;52063;45.110;9.870;2024-03-25T00:41:32;1.92;;;1.33;;
65463;SDS011;52063;45.110;9.870;2024-03-25T00:43:58;1.67;;;1.43;;
65463;SDS011;52063;45.110;9.870;2024-03-25T00:46:23;2.57;;;1.23;;
65463;SDS011;52063;45.110;9.870;2024-03-25T00:48:49;2.85;;;1.25;;
65463;SDS011;52063;45.110;9.870;2024-03-25T00:51:14;1.47;;;0.90;;
65463;SDS011;52063;45.110;9.870;2024-03-25T00:53:40;2.07;;;1.50;;
65463;SDS011;52063;45.110;9.870;2024-03-25T00:56:05;1.57;;;1.20;;
65463;SDS011;52063;45.110;9.870;2024-03-25T00:58:30;2.40;;;1.20;;
65463;SDS011;52063;45.110;9.870;2024-03-25T01:00:56;2.50;;;1.10;;
65463;SDS011;52063;45.110;9.870;2024-03-25T01:03:21;1.83;;;1.27;;
65463;SDS011;52063;45.110;9.870;2024-03-25T01:05:47;2.58;;;1.10;;
65463;SDS011;52063;45.110;9.870;2024-03-25T01:08:13;2.53;;;1.40;;
65463;SDS011;52063;45.110;9.870;2024-03-25T01:10:39;2.30;;;1.40;;
65463;SDS011;52063;45.110;9.870;2024-03-25T01:13:05;2.77;;;1.20;;
65463;SDS011;52063;45.110;9.870;2024-03-25T01:15:30;1.38;;;1.13;;
65463;SDS011;52063;45.110;9.870;2024-03-25T01:17:56;2.60;;;1.40;;
65463;SDS011;52063;45.110;9.870;2024-03-25T01:20:21;1.60;;;1.17;;
65463;SDS011;52063;45.110;9.870;2024-03-25T01:22:47;1.58;;;1.42;;
65463;SDS011;52063;45.110;9.870;2024-03-25T01:25:12;1.93;;;1.20;;
65463;SDS011;52063;45.110;9.870;2024-03-25T01:27:38;1.47;;;1.13;;
65463;SDS011;52063;45.110;9.870;2024-03-25T01:30:03;1.73;;;1.10;;
65463;SDS011;52063;45.110;9.870;2024-03-25T01:32:29;1.58;;;1.10;;
65463;SDS011;52063;45.110;9.870;2024-03-25T01:34:55;1.98;;;1.02;;
65463;SDS011;52063;45.110;9.870;2024-03-25T01:37:21;1.73;;;1.30;;
65463;SDS011;52063;45.110;9.870;2024-03-25T01:39:46;1.80;;;1.30;;
65463;SDS011;52063;45.110;9.870;2024-03-25T01:42:12;1.63;;;1.20;;
65463;SDS011;52063;45.110;9.870;2024-03-25T01:44:38;1.60;;;1.08;;
65463;SDS011;52063;45.110;9.870;2024-03-25T01:47:04;1.90;;;1.10;;
65463;SDS011;52063;45.110;9.870;2024-03-25T01:49:29;1.50;;;1.07;;
65463;SDS011;52063;45.110;9.870;2024-03-25T01:51:55;1.47;;;1.13;;
65463;SDS011;52063;45.110;9.870;2024-03-25T01:54:20;2.33;;;1.20;;
65463;SDS011;52063;45.110;9.870;2024-03-25T01:56:46;1.97;;;1.20;;
65463;SDS011;52063;45.110;9.870;2024-03-25T01:59:12;1.23;;;1.13;;
65463;SDS011;52063;45.110;9.870;2024-03-25T02:01:38;1.35;;;1.00;;
65463;SDS011;52063;45.110;9.870;2024-03-25T02:04:04;1.43;;;1.10;;
65463;SDS011;52063;45.110;9.870;2024-03-25T02:06:30;1.50;;;1.00;;
65463;SDS011;52063;45.110;9.870;2024-03-25T02:08:56;1.52;;;1.27;;
65463;SDS011;52063;45.110;9.870;2024-03-25T02:11:22;1.13;;;1.03;;
65463;SDS011;52063;45.110;9.870;2024-03-25T02:13:48;1.73;;;1.20;;
65463;SDS011;52063;45.110;9.870;2024-03-25T02:16:15;1.77;;;1.33;;
65463;SDS011;52063;45.110;9.870;2024-03-25T02:18:40;1.60;;;1.13;;
65463;SDS011;52063;45.110;9.870;2024-03-25T02:21:06;1.23;;;1.07;;
65463;SDS011;52063;45.110;9.870;2024-03-25T02:23:31;1.73;;;1.00;;
65463;SDS011;52063;45.110;9.870;2024-03-25T02:25:59;1.30;;;1.00;;
65463;SDS011;52063;45.110;9.870;2024-03-25T02:28:24;1.15;;;1.05;;
65463;SDS011;52063;45.110;9.870;2024-03-25T02:30:50;1.30;;;1.10;;
65463;SDS011;52063;45.110;9.870;2024-03-25T02:33:15;1.27;;;1.10;;
65463;SDS011;52063;45.110;9.870;2024-03-25T02:35:41;1.43;;;0.97;;
65463;SDS011;52063;45.110;9.870;2024-03-25T02:38:07;2.08;;;1.27;;
65463;SDS011;52063;45.110;9.870;2024-03-25T02:40:33;1.85;;;1.10;;
65463;SDS011;52063;45.110;9.870;2024-03-25T02:42:59;1.47;;;1.00;;
65463;SDS011;52063;45.110;9.870;2024-03-25T02:45:25;1.55;;;1.10;;
65463;SDS011;52063;45.110;9.870;2024-03-25T02:47:50;1.80;;;1.23;;
65463;SDS011;52063;45.110;9.870;2024-03-25T02:50:16;4.13;;;1.13;;
65463;SDS011;52063;45.110;9.870;2024-03-25T02:52:41;1.50;;;0.90;;
65463;SDS011;52063;45.110;9.870;2024-03-25T02:55:07;2.77;;;1.20;;
65463;SDS011;52063;45.110;9.870;2024-03-25T02:57:32;1.20;;;1.10;;
65463;SDS011;52063;45.110;9.870;2024-03-25T02:59:58;1.83;;;0.82;;
65463;SDS011;52063;45.110;9.870;2024-03-25T03:02:23;3.40;;;1.07;;
65463;SDS011;52063;45.110;9.870;2024-03-25T03:04:48;4.00;;;1.30;;
65463;SDS011;52063;45.110;9.870;2024-03-25T03:07:14;1.42;;;1.00;;
65463;SDS011;52063;45.110;9.870;2024-03-25T03:09:40;1.70;;;0.93;;
65463;SDS011;52063;45.110;9.870;2024-03-25T03:12:05;3.00;;;1.20;;
65463;SDS011;52063;45.110;9.870;2024-03-25T03:14:31;2.35;;;1.30;;
65463;SDS011;52063;45.110;9.870;2024-03-25T03:16:56;2.50;;;0.97;;
65463;SDS011;52063;45.110;9.870;2024-03-25T03:19:26;1.63;;;0.90;;
65463;SDS011;52063;45.110;9.870;2024-03-25T03:21:52;1.40;;;0.95;;
65463;SDS011;52063;45.110;9.870;2024-03-25T03:24:18;1.40;;;0.90;;
65463;SDS011;52063;45.110;9.870;2024-03-25T03:26:44;2.00;;;0.95;;
65463;SDS011;52063;45.110;9.870;2024-03-25T03:29:10;2.25;;;0.90;;
65463;SDS011;52063;45.110;9.870;2024-03-25T03:31:35;1.57;;;0.80;;
65463;SDS011;52063;45.110;9.870;2024-03-25T03:34:01;1.30;;;1.02;;
65463;SDS011;52063;45.110;9.870;2024-03-25T03:36:27;1.63;;;0.70;;
65463;SDS011;52063;45.110;9.870;2024-03-25T03:38:52;1.10;;;0.70;;
65463;SDS011;52063;45.110;9.870;2024-03-25T03:41:18;1.20;;;0.80;;
65463;SDS011;52063;45.110;9.870;2024-03-25T03:43:43;1.60;;;1.20;;
65463;SDS011;52063;45.110;9.870;2024-03-25T03:46:08;1.87;;;0.93;;
65463;SDS011;52063;45.110;9.870;2024-03-25T03:48:34;1.43;;;0.70;;
65463;SDS011;52063;45.110;9.870;2024-03-25T03:51:00;1.90;;;0.80;;
65463;SDS011;52063;45.110;9.870;2024-03-25T03:53:26;1.20;;;0.90;;
65463;SDS011;52063;45.110;9.870;2024-03-25T03:58:21;1.35;;;0.98;;
65463;SDS011;52063;45.110;9.870;2024-03-25T04:00:47;2.28;;;0.90;;
65463;SDS011;52063;45.110;9.870;2024-03-25T04:03:12;2.33;;;1.13;;
65463;SDS011;52063;45.110;9.870;2024-03-25T04:05:38;1.30;;;1.00;;
65463;SDS011;52063;45.110;9.870;2024-03-25T04:08:03;1.00;;;0.90;;
65463;SDS011;52063;45.110;9.870;2024-03-25T04:10:29;2.27;;;1.00;;
65463;SDS011;52063;45.110;9.870;2024-03-25T04:12:55;1.10;;;0.90;;
65463;SDS011;52063;45.110;9.870;2024-03-25T04:15:21;1.75;;;1.15;;
65463;SDS011;52063;45.110;9.870;2024-03-25T04:17:47;1.10;;;0.88;;
65463;SDS011;52063;45.110;9.870;2024-03-25T04:20:14;1.30;;;0.82;;
65463;SDS011;52063;45.110;9.870;2024-03-25T04:22:41;1.00;;;0.80;;
65463;SDS011;52063;45.110;9.870;2024-03-25T04:25:08;1.45;;;0.90;;
65463;SDS011;52063;45.110;9.870;2024-03-25T04:27:37;1.45;;;1.00;;
65463;SDS011;52063;45.110;9.870;2024-03-25T04:30:03;1.40;;;1.00;;
65463;SDS011;52063;45.110;9.870;2024-03-25T04:32:30;1.23;;;0.80;;
65463;SDS011;52063;45.110;9.870;2024-03-25T04:34:55;1.00;;;0.90;;
65463;SDS011;52063;45.110;9.870;2024-03-25T04:37:21;1.30;;;0.90;;
65463;SDS011;52063;45.110;9.870;2024-03-25T04:39:46;1.30;;;1.10;;
65463;SDS011;52063;45.110;9.870;2024-03-25T04:42:17;1.00;;;0.90;;
65463;SDS011;52063;45.110;9.870;2024-03-25T04:44:42;1.57;;;0.97;;
65463;SDS011;52063;45.110;9.870;2024-03-25T04:47:08;1.70;;;0.80;;
65463;SDS011;52063;45.110;9.870;2024-03-25T04:49:33;1.10;;;0.90;;
65463;SDS011;52063;45.110;9.870;2024-03-25T04:51:58;1.20;;;1.00;;
65463;SDS011;52063;45.110;9.870;2024-03-25T04:54:24;1.30;;;1.00;;
65463;SDS011;52063;45.110;9.870;2024-03-25T04:56:49;1.17;;;0.90;;
65463;SDS011;52063;45.110;9.870;2024-03-25T04:59:17;1.40;;;0.80;;
65463;SDS011;52063;45.110;9.870;2024-03-25T05:01:42;1.00;;;0.70;;
65463;SDS011;52063;45.110;9.870;2024-03-25T05:04:08;0.95;;;0.68;;
65463;SDS011;52063;45.110;9.870;2024-03-25T05:06:34;0.90;;;0.70;;
65463;SDS011;52063;45.110;9.870;2024-03-25T05:09:00;3.10;;;1.00;;
65463;SDS011;52063;45.110;9.870;2024-03-25T05:11:26;1.42;;;1.00;;
65463;SDS011;52063;45.110;9.870;2024-03-25T05:13:52;1.10;;;0.90;;
65463;SDS011;52063;45.110;9.870;2024-03-25T05:16:17;0.80;;;0.60;;
65463;SDS011;52063;45.110;9.870;2024-03-25T05:18:42;1.58;;;1.15;;
65463;SDS011;52063;45.110;9.870;2024-03-25T05:21:08;1.90;;;0.73;;
65463;SDS011;52063;45.110;9.870;2024-03-25T05:23:33;0.93;;;0.80;;
65463;SDS011;52063;45.110;9.870;2024-03-25T05:25:59;1.65;;;0.80;;
65463;SDS011;52063;45.110;9.870;2024-03-25T05:28:25;1.03;;;0.70;;
65463;SDS011;52063;45.110;9.870;2024-03-25T05:30:50;3.87;;;0.90;;
65463;SDS011;52063;45.110;9.870;2024-03-25T05:33:16;2.22;;;0.80;;
65463;SDS011;52063;45.110;9.870;2024-03-25T05:35:42;1.20;;;0.83;;
65463;SDS011;52063;45.110;9.870;2024-03-25T05:38:07;1.97;;;1.00;;
65463;SDS011;52063;45.110;9.870;2024-03-25T05:40:33;2.47;;;0.80;;
65463;SDS011;52063;45.110;9.870;2024-03-25T05:42:58;1.17;;;0.95;;
65463;SDS011;52063;45.110;9.870;2024-03-25T05:45:23;1.80;;;0.90;;
65463;SDS011;52063;45.110;9.870;2024-03-25T05:47:52;1.10;;;0.60;;
65463;SDS011;52063;45.110;9.870;2024-03-25T05:50:17;1.10;;;0.95;;
65463;SDS011;52063;45.110;9.870;2024-03-25T05:52:43;1.10;;;0.80;;
65463;SDS011;52063;45.110;9.870;2024-03-25T05:55:08;1.10;;;0.80;;
65463;SDS011;52063;45.110;9.870;2024-03-25T05:57:37;2.88;;;0.90;;
65463;SDS011;52063;45.110;9.870;2024-03-25T06:00:02;1.30;;;0.90;;
65463;SDS011;52063;45.110;9.870;2024-03-25T06:02:37;3.83;;;0.80;;
65463;SDS011;52063;45.110;9.870;2024-03-25T06:05:03;1.10;;;0.70;;
65463;SDS011;52063;45.110;9.870;2024-03-25T06:07:30;2.38;;;0.70;;
65463;SDS011;52063;45.110;9.870;2024-03-25T06:09:55;1.70;;;0.73;;
65463;SDS011;52063;45.110;9.870;2024-03-25T06:12:21;1.67;;;0.90;;
65463;SDS011;52063;45.110;9.870;2024-03-25T06:14:47;0.88;;;0.65;;
65463;SDS011;52063;45.110;9.870;2024-03-25T06:17:13;3.07;;;0.73;;
65463;SDS011;52063;45.110;9.870;2024-03-25T06:19:38;1.13;;;0.73;;
65463;SDS011;52063;45.110;9.870;2024-03-25T06:22:03;0.90;;;0.70;;
65463;SDS011;52063;45.110;9.870;2024-03-25T06:24:29;2.28;;;0.70;;
65463;SDS011;52063;45.110;9.870;2024-03-25T06:26:54;2.20;;;0.70;;
65463;SDS011;52063;45.110;9.870;2024-03-25T06:29:19;1.43;;;0.90;;
65463;SDS011;52063;45.110;9.870;2024-03-25T06:31:45;1.23;;;0.73;;
65463;SDS011;52063;45.110;9.870;2024-03-25T06:34:29;2.53;;;0.70;;
65463;SDS011;52063;45.110;9.870;2024-03-25T06:36:54;0.87;;;0.77;;
65463;SDS011;52063;45.110;9.870;2024-03-25T06:39:20;1.10;;;0.70;;
65463;SDS011;52063;45.110;9.870;2024-03-25T06:41:46;3.92;;;0.80;;
65463;SDS011;52063;45.110;9.870;2024-03-25T06:44:12;2.73;;;0.80;;
65463;SDS011;52063;45.110;9.870;2024-03-25T06:46:37;1.67;;;0.90;;
65463;SDS011;52063;45.110;9.870;2024-03-25T06:49:02;1.90;;;0.90;;
65463;SDS011;52063;45.110;9.870;2024-03-25T06:51:28;1.10;;;1.00;;
65463;SDS011;52063;45.110;9.870;2024-03-25T06:53:53;1.30;;;0.80;;
65463;SDS011;52063;45.110;9.870;2024-03-25T06:56:19;1.00;;;0.75;;
65463;SDS011;52063;45.110;9.870;2024-03-25T06:58:44;1.10;;;0.70;;
65463;SDS011;52063;45.110;9.870;2024-03-25T07:01:10;1.00;;;0.77;;
65463;SDS011;52063;45.110;9.870;2024-03-25T07:03:38;1.25;;;0.70;;
65463;SDS011;52063;45.110;9.870;2024-03-25T07:06:04;1.10;;;0.70;;
65463;SDS011;52063;45.110;9.870;2024-03-25T07:08:30;0.85;;;0.80;;
65463;SDS011;52063;45.110;9.870;2024-03-25T07:10:56;1.17;;;0.90;;
65463;SDS011;52063;45.110;9.870;2024-03-25T07:13:21;1.15;;;0.80;;
65463;SDS011;52063;45.110;9.870;2024-03-25T07:15:48;0.93;;;0.80;;
65463;SDS011;52063;45.110;9.870;2024-03-25T07:18:14;1.48;;;0.82;;
65463;SDS011;52063;45.110;9.870;2024-03-25T07:20:39;0.80;;;0.60;;
65463;SDS011;52063;45.110;9.870;2024-03-25T07:23:05;0.80;;;0.70;;
65463;SDS011;52063;45.110;9.870;2024-03-25T07:25:31;1.10;;;0.90;;
65463;SDS011;52063;45.110;9.870;2024-03-25T07:27:56;0.90;;;0.80;;
65463;SDS011;52063;45.110;9.870;2024-03-25T07:30:22;0.98;;;0.60;;
65463;SDS011;52063;45.110;9.870;2024-03-25T07:32:50;1.35;;;0.90;;
65463;SDS011;52063;45.110;9.870;2024-03-25T07:35:15;0.80;;;0.73;;
65463;SDS011;52063;45.110;9.870;2024-03-25T07:37:43;0.98;;;0.60;;
65463;SDS011;52063;45.110;9.870;2024-03-25T07:40:08;2.53;;;0.80;;
65463;SDS011;52063;45.110;9.870;2024-03-25T07:42:35;2.00;;;0.70;;
65463;SDS011;52063;45.110;9.870;2024-03-25T07:45:01;0.90;;;0.75;;
65463;SDS011;52063;45.110;9.870;2024-03-25T07:47:27;1.10;;;0.70;;
65463;SDS011;52063;45.110;9.870;2024-03-25T07:49:52;1.23;;;0.45;;
65463;SDS011;52063;45.110;9.870;2024-03-25T07:52:17;1.73;;;0.90;;
65463;SDS011;52063;45.110;9.870;2024-03-25T07:54:43;1.05;;;0.93;;
65463;SDS011;52063;45.110;9.870;2024-03-25T07:57:09;1.00;;;0.90;;
65463;SDS011;52063;45.110;9.870;2024-03-25T07:59:34;2.17;;;0.70;;
65463;SDS011;52063;45.110;9.870;2024-03-25T08:02:00;1.48;;;0.73;;
65463;SDS011;52063;45.110;9.870;2024-03-25T08:04:25;1.53;;;1.07;;
65463;SDS011;52063;45.110;9.870;2024-03-25T08:06:51;0.90;;;0.70;;
65463;SDS011;52063;45.110;9.870;2024-03-25T08:09:16;1.00;;;0.70;;
65463;SDS011;52063;45.110;9.870;2024-03-25T08:11:42;1.17;;;0.70;;
65463;SDS011;52063;45.110;9.870;2024-03-25T08:14:09;1.17;;;0.63;;
65463;SDS011;52063;45.110;9.870;2024-03-25T08:16:35;1.15;;;0.80;;
65463;SDS011;52063;45.110;9.870;2024-03-25T08:19:00;0.97;;;0.60;;
65463;SDS011;52063;45.110;9.870;2024-03-25T08:21:26;2.67;;;1.10;;
65463;SDS011;52063;45.110;9.870;2024-03-25T08:23:51;1.40;;;0.73;;
65463;SDS011;52063;45.110;9.870;2024-03-25T08:26:17;1.00;;;0.90;;
65463;SDS011;52063;45.110;9.870;2024-03-25T08:28:43;5.50;;;1.33;;
65463;SDS011;52063;45.110;9.870;2024-03-25T08:31:08;7.50;;;3.70;;
65463;SDS011;52063;45.110;9.870;2024-03-25T08:33:34;13.18;;;4.43;;
65463;SDS011;52063;45.110;9.870;2024-03-25T08:35:59;12.73;;;4.60;;
65463;SDS011;52063;45.110;9.870;2024-03-25T08:38:25;9.17;;;4.37;;
65463;SDS011;52063;45.110;9.870;2024-03-25T08:40:50;7.45;;;4.22;;
65463;SDS011;52063;45.110;9.870;2024-03-25T08:43:16;6.33;;;4.50;;
65463;SDS011;52063;45.110;9.870;2024-03-25T08:45:42;6.45;;;4.40;;
65463;SDS011;52063;45.110;9.870;2024-03-25T08:48:08;11.05;;;5.18;;
65463;SDS011;52063;45.110;9.870;2024-03-25T08:50:34;7.87;;;4.80;;
65463;SDS011;52063;45.110;9.870;2024-03-25T08:52:59;9.50;;;4.83;;
65463;SDS011;52063;45.110;9.870;2024-03-25T08:55:25;6.28;;;3.92;;
65463;SDS011;52063;45.110;9.870;2024-03-25T08:57:50;9.80;;;3.87;;
65463;SDS011;52063;45.110;9.870;2024-03-25T09:00:16;9.80;;;4.53;;
65463;SDS011;52063;45.110;9.870;2024-03-25T09:02:43;9.53;;;4.40;;
65463;SDS011;52063;45.110;9.870;2024-03-25T09:05:09;7.95;;;4.03;;
65463;SDS011;52063;45.110;9.870;2024-03-25T09:07:35;5.57;;;3.88;;
65463;SDS011;52063;45.110;9.870;2024-03-25T09:10:00;8.33;;;3.90;;
65463;SDS011;52063;45.110;9.870;2024-03-25T09:12:44;4.55;;;3.50;;
65463;SDS011;52063;45.110;9.870;2024-03-25T09:15:10;6.30;;;4.33;;
65463;SDS011;52063;45.110;9.870;2024-03-25T09:17:35;7.20;;;4.17;;
65463;SDS011;52063;45.110;9.870;2024-03-25T09:20:01;7.32;;;3.50;;
65463;SDS011;52063;45.110;9.870;2024-03-25T09:22:29;5.68;;;3.53;;
65463;SDS011;52063;45.110;9.870;2024-03-25T09:24:54;8.13;;;4.13;;
65463;SDS011;52063;45.110;9.870;2024-03-25T09:27:20;10.00;;;4.20;;
65463;SDS011;52063;45.110;9.870;2024-03-25T09:29:45;6.87;;;3.90;;
65463;SDS011;52063;45.110;9.870;2024-03-25T09:32:11;7.20;;;4.20;;
65463;SDS011;52063;45.110;9.870;2024-03-25T09:34:36;5.57;;;3.97;;
65463;SDS011;52063;45.110;9.870;2024-03-25T09:37:02;10.50;;;3.70;;
65463;SDS011;52063;45.110;9.870;2024-03-25T09:39:27;7.03;;;3.83;;
65463;SDS011;52063;45.110;9.870;2024-03-25T09:41:54;9.53;;;3.57;;
65463;SDS011;52063;45.110;9.870;2024-03-25T09:44:22;5.18;;;3.78;;
65463;SDS011;52063;45.110;9.870;2024-03-25T09:46:50;5.00;;;3.38;;
65463;SDS011;52063;45.110;9.870;2024-03-25T09:49:16;5.13;;;3.00;;
65463;SDS011;52063;45.110;9.870;2024-03-25T09:51:41;6.75;;;3.20;;
65463;SDS011;52063;45.110;9.870;2024-03-25T09:54:08;4.35;;;2.67;;
65463;SDS011;52063;45.110;9.870;2024-03-25T09:56:33;7.20;;;3.20;;
65463;SDS011;52063;45.110;9.870;2024-03-25T09:58:59;5.75;;;3.05;;
65463;SDS011;52063;45.110;9.870;2024-03-25T10:01:24;11.77;;;3.27;;
65463;SDS011;52063;45.110;9.870;2024-03-25T10:03:50;4.17;;;2.53;;
65463;SDS011;52063;45.110;9.870;2024-03-25T10:06:16;5.63;;;3.03;;
65463;SDS011;52063;45.110;9.870;2024-03-25T10:08:42;6.57;;;3.15;;
65463;SDS011;52063;45.110;9.870;2024-03-25T10:11:07;5.90;;;3.50;;
65463;SDS011;52063;45.110;9.870;2024-03-25T10:13:33;6.20;;;3.00;;
65463;SDS011;52063;45.110;9.870;2024-03-25T10:15:58;7.40;;;3.17;;
65463;SDS011;52063;45.110;9.870;2024-03-25T10:18:24;6.50;;;3.37;;
65463;SDS011;52063;45.110;9.870;2024-03-25T10:20:50;4.22;;;3.10;;
65463;SDS011;52063;45.110;9.870;2024-03-25T10:23:19;6.07;;;3.10;;
65463;SDS011;52063;45.110;9.870;2024-03-25T10:25:49;8.32;;;4.10;;
65463;SDS011;52063;45.110;9.870;2024-03-25T10:28:17;4.83;;;3.40;;
65463;SDS011;52063;45.110;9.870;2024-03-25T10:30:43;5.82;;;3.15;;
65463;SDS011;52063;45.110;9.870;2024-03-25T10:33:08;3.90;;;2.90;;
65463;SDS011;52063;45.110;9.870;2024-03-25T10:35:34;6.60;;;3.20;;
65463;SDS011;52063;45.110;9.870;2024-03-25T10:40:35;6.43;;;3.20;;
65463;SDS011;52063;45.110;9.870;2024-03-25T10:45:34;4.53;;;3.10;;
65463;SDS011;52063;45.110;9.870;2024-03-25T10:50:43;3.67;;;3.05;;
65463;SDS011;52063;45.110;9.870;2024-03-25T10:53:10;3.30;;;3.00;;
65463;SDS011;52063;45.110;9.870;2024-03-25T10:55:36;6.35;;;3.15;;
65463;SDS011;52063;45.110;9.870;2024-03-25T10:58:03;6.23;;;2.57;;
65463;SDS011;52063;45.110;9.870;2024-03-25T11:00:29;5.70;;;2.60;;
65463;SDS011;52063;45.110;9.870;2024-03-25T11:02:55;5.18;;;2.78;;
65463;SDS011;52063;45.110;9.870;2024-03-25T11:05:20;5.83;;;3.03;;
65463;SDS011;52063;45.110;9.870;2024-03-25T11:07:46;5.67;;;2.60;;
65463;SDS011;52063;45.110;9.870;2024-03-25T11:10:11;4.27;;;2.83;;
65463;SDS011;52063;45.110;9.870;2024-03-25T11:12:37;5.57;;;2.75;;
65463;SDS011;52063;45.110;9.870;2024-03-25T11:15:07;6.00;;;2.60;;
65463;SDS011;52063;45.110;9.870;2024-03-25T11:17:33;6.68;;;2.67;;
65463;SDS011;52063;45.110;9.870;2024-03-25T11:22:33;3.17;;;2.40;;
65463;SDS011;52063;45.110;9.870;2024-03-25T11:25:04;4.85;;;2.78;;
65463;SDS011;52063;45.110;9.870;2024-03-25T11:27:31;2.97;;;2.60;;
65463;SDS011;52063;45.110;9.870;2024-03-25T11:29:57;3.83;;;2.38;;
65463;SDS011;52063;45.110;9.870;2024-03-25T11:32:23;8.97;;;2.83;;
65463;SDS011;52063;45.110;9.870;2024-03-25T11:34:49;2.78;;;2.40;;
65463;SDS011;52063;45.110;9.870;2024-03-25T11:37:15;3.42;;;2.40;;
65463;SDS011;52063;45.110;9.870;2024-03-25T11:39:41;4.10;;;2.20;;
65463;SDS011;52063;45.110;9.870;2024-03-25T11:42:07;4.43;;;2.10;;
65463;SDS011;52063;45.110;9.870;2024-03-25T11:44:35;3.42;;;2.28;;
65463;SDS011;52063;45.110;9.870;2024-03-25T11:47:03;5.07;;;2.25;;
65463;SDS011;52063;45.110;9.870;2024-03-25T11:49:30;2.47;;;2.22;;
65463;SDS011;52063;45.110;9.870;2024-03-25T11:51:55;4.70;;;2.17;;
65463;SDS011;52063;45.110;9.870;2024-03-25T11:54:26;2.80;;;2.00;;
65463;SDS011;52063;45.110;9.870;2024-03-25T11:56:52;2.38;;;2.17;;
65463;SDS011;52063;45.110;9.870;2024-03-25T11:59:19;2.50;;;2.30;;
65463;SDS011;52063;45.110;9.870;2024-03-25T12:01:44;2.50;;;1.80;;
65463;SDS011;52063;45.110;9.870;2024-03-25T12:04:16;3.53;;;2.13;;
65463;SDS011;52063;45.110;9.870;2024-03-25T12:06:43;2.70;;;2.00;;
65463;SDS011;52063;45.110;9.870;2024-03-25T12:09:10;4.47;;;2.17;;
65463;SDS011;52063;45.110;9.870;2024-03-25T12:11:54;3.10;;;1.95;;
65463;SDS011;52063;45.110;9.870;2024-03-25T12:14:21;2.33;;;2.10;;
65463;SDS011;52063;45.110;9.870;2024-03-25T12:16:48;2.72;;;1.83;;
65463;SDS011;52063;45.110;9.870;2024-03-25T12:19:15;3.35;;;2.05;;
65463;SDS011;52063;45.110;9.870;2024-03-25T12:21:40;3.80;;;1.80;;
65463;SDS011;52063;45.110;9.870;2024-03-25T12:24:06;2.28;;;2.08;;
65463;SDS011;52063;45.110;9.870;2024-03-25T12:26:34;1.67;;;1.57;;
65463;SDS011;52063;45.110;9.870;2024-03-25T12:28:59;3.13;;;1.77;;
65463;SDS011;52063;45.110;9.870;2024-03-25T12:31:25;3.40;;;1.57;;
65463;SDS011;52063;45.110;9.870;2024-03-25T12:33:50;3.70;;;1.70;;
65463;SDS011;52063;45.110;9.870;2024-03-25T12:36:16;2.97;;;1.50;;
65463;SDS011;52063;45.110;9.870;2024-03-25T12:38:41;4.93;;;1.77;;
65463;SDS011;52063;45.110;9.870;2024-03-25T12:41:08;3.05;;;1.50;;
65463;SDS011;52063;45.110;9.870;2024-03-25T12:43:35;2.83;;;1.60;;
65463;SDS011;52063;45.110;9.870;2024-03-25T12:46:01;1.83;;;1.40;;
65463;SDS011;52063;45.110;9.870;2024-03-25T12:48:30;2.00;;;1.10;;
65463;SDS011;52063;45.110;9.870;2024-03-25T12:50:56;2.00;;;1.50;;
65463;SDS011;52063;45.110;9.870;2024-03-25T12:53:21;4.40;;;1.00;;
65463;SDS011;52063;45.110;9.870;2024-03-25T12:55:47;1.70;;;1.40;;
65463;SDS011;52063;45.110;9.870;2024-03-25T12:58:13;1.85;;;1.20;;
65463;SDS011;52063;45.110;9.870;2024-03-25T13:00:38;2.50;;;1.47;;
65463;SDS011;52063;45.110;9.870;2024-03-25T13:03:05;2.43;;;1.50;;
65463;SDS011;52063;45.110;9.870;2024-03-25T13:05:32;3.17;;;1.50;;
65463;SDS011;52063;45.110;9.870;2024-03-25T13:07:58;1.40;;;1.30;;
65463;SDS011;52063;45.110;9.870;2024-03-25T13:10:23;1.43;;;1.07;;
65463;SDS011;52063;45.110;9.870;2024-03-25T13:12:49;1.60;;;1.40;;
65463;SDS011;52063;45.110;9.870;2024-03-25T13:15:14;2.77;;;1.60;;
65463;SDS011;52063;45.110;9.870;2024-03-25T13:17:40;2.30;;;1.33;;
65463;SDS011;52063;45.110;9.870;2024-03-25T13:20:05;2.10;;;1.30;;
65463;SDS011;52063;45.110;9.870;2024-03-25T13:22:31;1.70;;;1.30;;
65463;SDS011;52063;45.110;9.870;2024-03-25T13:24:57;4.50;;;1.33;;
65463;SDS011;52063;45.110;9.870;2024-03-25T13:27:24;1.20;;;1.10;;
65463;SDS011;52063;45.110;9.870;2024-03-25T13:29:50;1.48;;;1.17;;
65463;SDS011;52063;45.110;9.870;2024-03-25T13:32:17;1.60;;;1.23;;
65463;SDS011;52063;45.110;9.870;2024-03-25T13:34:46;1.58;;;1.10;;
65463;SDS011;52063;45.110;9.870;2024-03-25T13:37:12;1.97;;;1.20;;
65463;SDS011;52063;45.110;9.870;2024-03-25T13:39:38;4.65;;;1.38;;
65463;SDS011;52063;45.110;9.870;2024-03-25T13:42:04;2.10;;;0.93;;
65463;SDS011;52063;45.110;9.870;2024-03-25T13:44:30;2.90;;;1.20;;
65463;SDS011;52063;45.110;9.870;2024-03-25T13:46:55;2.58;;;1.25;;
65463;SDS011;52063;45.110;9.870;2024-03-25T13:49:21;1.77;;;1.17;;
65463;SDS011;52063;45.110;9.870;2024-03-25T13:51:48;1.30;;;1.20;;
65463;SDS011;52063;45.110;9.870;2024-03-25T13:54:13;2.80;;;1.10;;
65463;SDS011;52063;45.110;9.870;2024-03-25T13:56:39;2.47;;;1.10;;
65463;SDS011;52063;45.110;9.870;2024-03-25T13:59:07;1.33;;;0.88;;
65463;SDS011;52063;45.110;9.870;2024-03-25T14:01:32;3.10;;;1.07;;
65463;SDS011;52063;45.110;9.870;2024-03-25T14:03:58;1.77;;;0.90;;
65463;SDS011;52063;45.110;9.870;2024-03-25T14:06:24;1.60;;;1.00;;
65463;SDS011;52063;45.110;9.870;2024-03-25T14:08:50;5.15;;;0.88;;
65463;SDS011;52063;45.110;9.870;2024-03-25T14:11:15;1.13;;;1.00;;
65463;SDS011;52063;45.110;9.870;2024-03-25T14:13:41;1.23;;;1.03;;
65463;SDS011;52063;45.110;9.870;2024-03-25T14:16:06;1.10;;;0.85;;
65463;SDS011;52063;45.110;9.870;2024-03-25T14:18:31;2.10;;;1.07;;
65463;SDS011;52063;45.110;9.870;2024-03-25T14:20:57;1.40;;;1.00;;
65463;SDS011;52063;45.110;9.870;2024-03-25T14:23:22;1.90;;;1.00;;
65463;SDS011;52063;45.110;9.870;2024-03-25T14:25:48;1.30;;;1.00;;
65463;SDS011;52063;45.110;9.870;2024-03-25T14:28:14;2.92;;;1.10;;
65463;SDS011;52063;45.110;9.870;2024-03-25T14:30:39;2.37;;;0.90;;
65463;SDS011;52063;45.110;9.870;2024-03-25T14:33:04;1.23;;;0.90;;
65463;SDS011;52063;45.110;9.870;2024-03-25T14:35:30;2.50;;;1.00;;
65463;SDS011;52063;45.110;9.870;2024-03-25T14:37:55;1.58;;;0.98;;
65463;SDS011;52063;45.110;9.870;2024-03-25T14:40:21;1.47;;;0.90;;
65463;SDS011;52063;45.110;9.870;2024-03-25T14:42:46;4.03;;;1.10;;
65463;SDS011;52063;45.110;9.870;2024-03-25T14:45:12;1.88;;;1.00;;
65463;SDS011;52063;45.110;9.870;2024-03-25T14:47:38;3.53;;;1.13;;
65463;SDS011;52063;45.110;9.870;2024-03-25T14:50:03;1.10;;;1.00;;
65463;SDS011;52063;45.110;9.870;2024-03-25T14:52:30;1.40;;;1.20;;